• Join FlightAware (Why Join?)
  • Login
  • US Flag 
07:03AM EDT


 

Airport Tracker/Info


-or-


 

Live Flight TrackerFlight Track Log ✈ ASQ4209 ✈ 20-May-2013 ✈ KIAH - KTYS

Flight Track Log - Related Links

Times and Time Zones

All times are in EDT time to prevent confusion due to time zone crossing. See the ASQ4209 flight status page for this flight to view local times or setup timezone preferences in your user account.

Time Position Orientation Groundspeed Altitude Reporting Facility
EDT Latitude Longitude Course Direction KTS MPH feet Rate Location/Type
09:34PM 29.9617 -95.3436 90° East 144 166 700  Level Houston Center
09:35PM 29.9536 -95.3011 102° East 204 235 2,000 1,380 Climbing Houston Center
09:36PM 29.9539 -95.2489 90° East 212 244 3,100 1,620 Climbing Houston Center
09:37PM 29.9834 -94.9694 90° East  Level FlightAware Approximate
09:37PM 29.9578 -95.1661 87° East 247 284 5,100  Level Houston Center
09:38PM 29.9833 -94.8481 90° East  Level FlightAware Approximate
09:38PM 29.9622 -95.0781 87° East 271 312 7,100  Level Houston Center
09:39PM 29.9834 -94.7268 90° East  Level FlightAware Approximate
09:39PM 29.9667 -94.9856 87° East 283 326 8,800  Level Houston Center
09:40PM 29.9711 -94.8903 87° East 292 336 10,400 1,080 Climbing Houston Center
09:41PM 29.9772 -94.7642 87° East 322 371 11,100 1,020 Climbing Houston Center
09:42PM 29.9828 -94.6492 87° East 350 403 12,500 1,320 Climbing Houston Center
09:43PM 29.9869 -94.5347 88° East 356 410 13,900 1,260 Climbing Houston Center
09:44PM 29.9914 -94.4150 88° East 357 411 15,100 1,080 Climbing Houston Center
09:45PM 29.9964 -94.2969 87° East 365 420 16,200 1,020 Climbing Houston Center
09:47PM 30.0267 -94.0533 82° East 384 442 18,400 1,020 Climbing Houston Center
09:48PM 30.0431 -93.9286 81° East 392 451 19,400 1,020 Climbing Houston Center
09:49PM 30.0594 -93.8003 82° East 405 466 20,500 1,020 Climbing Houston Center
09:50PM 30.0747 -93.6708 82° East 410 472 21,500 1,080 Climbing Houston Center
09:51PM 30.0917 -93.5164 83° East 410 472 22,800 1,080 Climbing Houston Center
09:52PM 30.1069 -93.3861 82° East 414 476 23,800 1,020 Climbing Houston Center
09:53PM 30.1217 -93.2544 83° East 418 481 24,900 1,020 Climbing Houston Center
09:54PM 30.1389 -93.1239 81° East 416 479 25,900 960 Climbing Houston Center
09:55PM 30.1931 -93.0083 62° Northeast 412 474 26,900 1,020 Climbing Houston Center
09:56PM 30.2533 -92.8989 57° Northeast 407 468 28,000 1,020 Climbing Houston Center
09:57PM 30.3136 -92.7878 58° Northeast 411 473 29,000 1,080 Climbing Houston Center
09:58PM 30.3864 -92.6539 58° Northeast 412 474 30,200 1,080 Climbing Houston Center
09:59PM 30.4489 -92.5403 57° Northeast 417 480 31,300 1,020 Climbing Houston Center
10:00PM 30.5036 -92.4361 59° Northeast 414 476 32,300 960 Climbing Houston Center
10:01PM 30.5647 -92.3222 58° Northeast 416 479 33,300 1,080 Climbing Houston Center
10:02PM 30.6381 -92.1872 58° Northeast 415 478 34,500 780 Climbing Houston Center
10:03PM 30.6994 -92.0747 58° Northeast 414 476 35,000 240 Climbing Houston Center
10:04PM 30.7642 -91.9544 58° Northeast 437 503 35,000  Level Houston Center
10:05PM 30.8314 -91.8283 58° Northeast 459 528 35,000  Level Houston Center
10:06PM 30.9008 -91.6981 58° Northeast 474 545 35,000  Level Houston Center
10:07PM 30.9711 -91.5656 58° Northeast 482 555 35,000  Level Houston Center
10:08PM 31.0414 -91.4350 58° Northeast 479 551 35,000  Level Houston Center
10:09PM 31.1064 -91.3097 59° Northeast 475 547 35,000  Level Houston Center
10:11PM 31.1894 -91.1514 58° Northeast 476 548 35,000  Level Houston Center
10:12PM 31.2581 -91.0189 59° Northeast 474 545 35,000  Level Houston Center
10:13PM 31.3267 -90.8864 59° Northeast 477 549 35,000  Level Houston Center
10:14PM 31.3947 -90.7536 59° Northeast 476 548 35,000  Level Houston Center
10:15PM 31.4647 -90.6203 58° Northeast 479 551 35,000  Level Houston Center
10:16PM 31.5344 -90.4861 59° Northeast 477 549 35,000  Level Houston Center
10:17PM 31.6022 -90.3533 59° Northeast 479 551 35,000  Level Houston Center
10:18PM 31.6703 -90.2208 59° Northeast 478 550 35,000  Level Houston Center
10:19PM 31.7375 -90.0881 59° Northeast 473 544 35,000  Level Houston Center
10:20PM 31.8050 -89.9553 59° Northeast 472 543 35,000  Level Houston Center
10:21PM 31.8783 -89.8092 59° Northeast 470 541 35,000  Level Houston Center
10:21PM 31.9311 -89.7039 59° Northeast 467 537 35,000  Level Memphis Center
10:22PM 31.9992 -89.5686 59° Northeast 467 537 35,000  Level Memphis Center
10:23PM 32.0714 -89.4453 55° Northeast 462 532 35,000  Level Memphis Center
10:24PM 32.1561 -89.3317 49° Northeast 457 526 35,000  Level Memphis Center
10:25PM 32.2386 -89.2153 50° Northeast 457 526 35,000  Level Memphis Center
10:26PM 32.3231 -89.1036 48° Northeast 457 526 35,000  Level Memphis Center
10:27PM 32.4075 -88.9892 49° Northeast 457 526 35,000  Level Memphis Center
10:28PM 32.4817 -88.8847 50° Northeast 457 526 35,000  Level Memphis Center
10:29PM 32.5658 -88.7722 48° Northeast 462 532 35,000  Level Memphis Center
10:30PM 32.6519 -88.6547 49° Northeast 462 532 35,000  Level Memphis Center
10:31PM 32.7336 -88.5372 50° Northeast 462 532 35,000  Level Memphis Center
10:33PM 32.8717 -88.3397 50° Northeast 462 532 35,000  Level Atlanta Center
10:34PM 32.9531 -88.2247 50° Northeast 456 525 35,000  Level Atlanta Center
10:35PM 33.0383 -88.1100 48° Northeast 456 525 35,000  Level Atlanta Center
10:36PM 33.1192 -87.9922 51° Northeast 463 533 35,000  Level Atlanta Center
10:37PM 33.2064 -87.8744 48° Northeast 463 533 35,000  Level Atlanta Center
10:38PM 33.2875 -87.7539 51° Northeast 463 533 35,000  Level Atlanta Center
10:39PM 33.3700 -87.6406 49° Northeast 463 533 35,000  Level Atlanta Center
10:40PM 33.4528 -87.5244 49° Northeast 463 533 35,000  Level Atlanta Center
10:41PM 33.5311 -87.4106 50° Northeast 452 520 35,000  Level Atlanta Center
10:42PM 33.6114 -87.2964 50° Northeast 446 513 35,000  Level Atlanta Center
10:43PM 33.6894 -87.1794 51° Northeast 446 513 35,000  Level Atlanta Center
10:44PM 33.7717 -87.0625 50° Northeast 446 513 35,000  Level Atlanta Center
10:45PM 33.8517 -86.9478 50° Northeast 446 513 35,000  Level Atlanta Center
10:46PM 33.9231 -86.8425 51° Northeast 446 513 35,000  Level Atlanta Center
10:47PM 34.0028 -86.7275 50° Northeast 441 507 35,000  Level Atlanta Center
10:48PM 34.0803 -86.6144 50° Northeast 441 507 35,000  Level Atlanta Center
10:49PM 34.1622 -86.4967 50° Northeast 441 507 35,000  Level Atlanta Center
10:50PM 34.2436 -86.3808 50° Northeast 441 507 35,000 -60 Level Atlanta Center
10:51PM 34.3231 -86.2622 51° Northeast 441 507 34,900 -540 Descending Atlanta Center
10:52PM 34.4025 -86.1436 51° Northeast 441 507 34,000 -900 Descending Atlanta Center
10:53PM 34.4817 -86.0269 51° Northeast 441 507 33,100 -960 Descending Atlanta Center
10:54PM 34.5586 -85.9103 51° Northeast 441 507 32,100 -1,020 Descending Atlanta Center
10:55PM 34.6458 -85.7833 50° Northeast 441 507 31,100 -960 Descending Atlanta Center
10:56PM 34.7247 -85.6639 51° Northeast 441 507 30,200 -900 Descending Atlanta Center
10:57PM 34.8078 -85.5414 50° Northeast 446 513 29,300 -960 Descending Atlanta Center
10:58PM 34.8886 -85.4189 51° Northeast 457 526 28,300 -960 Descending Atlanta Center
10:59PM 34.9711 -85.2961 51° Northeast 457 526 27,400 -1,020 Descending Atlanta Center
11:00PM 35.0497 -85.1728 52° Northeast 457 526 26,300 -1,200 Descending Atlanta Center
11:01PM 35.1319 -85.0469 51° Northeast 462 532 25,000 -1,200 Descending Atlanta Center
11:02PM 35.2122 -84.9261 51° Northeast 462 532 24,000 -1,560 Descending Atlanta Center
11:03PM 35.2881 -84.8072 52° Northeast 457 526 21,900 -2,160 Descending Atlanta Center
11:04PM 35.3619 -84.6958 51° Northeast 441 507 19,700 -2,100 Descending Atlanta Center
11:05PM 35.4311 -84.5867 52° Northeast 423 487 17,800 -1,920 Descending Atlanta Center
11:06PM 35.5025 -84.4800 51° Northeast 410 472 15,900 -1,800 Descending Atlanta Center
11:07PM 35.5675 -84.3758 52° Northeast 397 457 14,200 -1,800 Descending Atlanta Center
11:08PM 35.6553 -84.2969 36° Northeast 383 441 12,400 -1,800 Descending Atlanta Center
11:09PM 35.7306 -84.2306 36° Northeast 361 415 10,700 -1,800 Descending Atlanta Center
11:10PM 35.7975 -84.1667 38° Northeast 328 377 8,800 -1,920 Descending Atlanta Center
11:11PM 35.8497 -84.1003 46° Northeast 291 335 6,900 -1,800 Descending Atlanta Center
11:12PM 35.8997 -84.0361 46° Northeast 267 307 5,300 -1,500 Descending Atlanta Center
11:13PM 35.9144 -83.9722 74° East 217 250 4,000 -1,320 Descending Atlanta Center